sensor_id;sensor_type;location;lat;lon;timestamp;temperature;humidity
26408;DHT22;14583;43.604;1.364;2023-02-01T00:00:21;8.00;99.90
26408;DHT22;14583;43.604;1.364;2023-02-01T00:02:46;8.00;99.90
26408;DHT22;14583;43.604;1.364;2023-02-01T00:05:13;7.90;99.90
26408;DHT22;14583;43.604;1.364;2023-02-01T00:07:39;7.90;99.90
26408;DHT22;14583;43.604;1.364;2023-02-01T00:10:05;7.90;99.90
26408;DHT22;14583;43.604;1.364;2023-02-01T00:12:32;8.00;99.90
26408;DHT22;14583;43.604;1.364;2023-02-01T00:14:57;8.00;99.90
26408;DHT22;14583;43.604;1.364;2023-02-01T00:17:23;8.00;99.90
26408;DHT22;14583;43.604;1.364;2023-02-01T00:19:49;8.00;99.90
26408;DHT22;14583;43.604;1.364;2023-02-01T00:22:15;8.00;99.90
26408;DHT22;14583;43.604;1.364;2023-02-01T00:24:41;8.00;99.90
26408;DHT22;14583;43.604;1.364;2023-02-01T00:27:06;8.00;99.90
26408;DHT22;14583;43.604;1.364;2023-02-01T00:29:32;8.00;99.90
26408;DHT22;14583;43.604;1.364;2023-02-01T00:31:58;8.00;99.90
26408;DHT22;14583;43.604;1.364;2023-02-01T00:34:24;8.00;99.90
26408;DHT22;14583;43.604;1.364;2023-02-01T00:36:49;8.00;99.90
26408;DHT22;14583;43.604;1.364;2023-02-01T00:39:15;8.00;99.90
26408;DHT22;14583;43.604;1.364;2023-02-01T00:41:41;8.00;99.90
26408;DHT22;14583;43.604;1.364;2023-02-01T00:44:07;8.00;99.90
26408;DHT22;14583;43.604;1.364;2023-02-01T00:46:33;8.00;99.90
26408;DHT22;14583;43.604;1.364;2023-02-01T00:48:59;8.00;99.90
26408;DHT22;14583;43.604;1.364;2023-02-01T00:51:27;7.90;99.90
26408;DHT22;14583;43.604;1.364;2023-02-01T00:53:54;7.90;99.90
26408;DHT22;14583;43.604;1.364;2023-02-01T00:56:20;7.80;99.90
26408;DHT22;14583;43.604;1.364;2023-02-01T00:58:46;7.90;99.90
26408;DHT22;14583;43.604;1.364;2023-02-01T01:01:32;7.90;99.90
26408;DHT22;14583;43.604;1.364;2023-02-01T01:03:59;7.90;99.90
26408;DHT22;14583;43.604;1.364;2023-02-01T01:06:26;8.00;99.90
26408;DHT22;14583;43.604;1.364;2023-02-01T01:08:54;8.00;99.90
26408;DHT22;14583;43.604;1.364;2023-02-01T01:11:22;8.00;99.90
26408;DHT22;14583;43.604;1.364;2023-02-01T01:13:50;8.00;99.90
26408;DHT22;14583;43.604;1.364;2023-02-01T01:16:17;8.10;99.90
26408;DHT22;14583;43.604;1.364;2023-02-01T01:18:43;8.10;99.90
26408;DHT22;14583;43.604;1.364;2023-02-01T01:21:09;8.00;99.90
26408;DHT22;14583;43.604;1.364;2023-02-01T01:23:36;8.00;99.90
26408;DHT22;14583;43.604;1.364;2023-02-01T01:26:10;8.00;99.90
26408;DHT22;14583;43.604;1.364;2023-02-01T01:28:37;8.00;99.90
26408;DHT22;14583;43.604;1.364;2023-02-01T01:31:03;8.00;99.90
26408;DHT22;14583;43.604;1.364;2023-02-01T01:33:29;8.00;99.90
26408;DHT22;14583;43.604;1.364;2023-02-01T01:35:55;8.00;99.90
26408;DHT22;14583;43.604;1.364;2023-02-01T01:38:20;7.90;99.90
26408;DHT22;14583;43.604;1.364;2023-02-01T01:40:47;7.90;99.90
26408;DHT22;14583;43.604;1.364;2023-02-01T01:43:17;7.90;99.90
26408;DHT22;14583;43.604;1.364;2023-02-01T01:45:45;7.90;99.90
26408;DHT22;14583;43.604;1.364;2023-02-01T01:48:13;7.90;99.90
26408;DHT22;14583;43.604;1.364;2023-02-01T01:53:27;7.90;99.90
26408;DHT22;14583;43.604;1.364;2023-02-01T01:55:54;7.80;99.90
26408;DHT22;14583;43.604;1.364;2023-02-01T01:58:23;7.90;99.90
26408;DHT22;14583;43.604;1.364;2023-02-01T02:00:50;7.90;99.90
26408;DHT22;14583;43.604;1.364;2023-02-01T02:03:20;7.90;99.90
26408;DHT22;14583;43.604;1.364;2023-02-01T02:05:49;7.80;99.90
26408;DHT22;14583;43.604;1.364;2023-02-01T02:08:17;7.90;99.90
26408;DHT22;14583;43.604;1.364;2023-02-01T02:10:50;7.80;99.90
26408;DHT22;14583;43.604;1.364;2023-02-01T02:13:40;7.80;99.90
26408;DHT22;14583;43.604;1.364;2023-02-01T02:16:32;7.80;99.90
26408;DHT22;14583;43.604;1.364;2023-02-01T02:22:12;7.80;99.90
26408;DHT22;14583;43.604;1.364;2023-02-01T02:33:14;7.80;99.90
26408;DHT22;14583;43.604;1.364;2023-02-01T02:40:53;7.70;99.90
26408;DHT22;14583;43.604;1.364;2023-02-01T02:43:31;7.70;99.90
26408;DHT22;14583;43.604;1.364;2023-02-01T02:46:29;7.70;99.90
26408;DHT22;14583;43.604;1.364;2023-02-01T02:49:25;7.70;99.90
26408;DHT22;14583;43.604;1.364;2023-02-01T02:52:14;7.70;99.90
26408;DHT22;14583;43.604;1.364;2023-02-01T02:55:01;7.70;99.90
26408;DHT22;14583;43.604;1.364;2023-02-01T02:57:37;7.80;99.90
26408;DHT22;14583;43.604;1.364;2023-02-01T03:00:27;7.70;99.90
26408;DHT22;14583;43.604;1.364;2023-02-01T03:03:11;7.70;99.90
26408;DHT22;14583;43.604;1.364;2023-02-01T03:05:56;7.80;99.90
26408;DHT22;14583;43.604;1.364;2023-02-01T03:08:22;7.90;99.90
26408;DHT22;14583;43.604;1.364;2023-02-01T03:11:04;7.90;99.90
26408;DHT22;14583;43.604;1.364;2023-02-01T03:14:19;7.80;99.90
26408;DHT22;14583;43.604;1.364;2023-02-01T03:16:48;7.80;99.90
26408;DHT22;14583;43.604;1.364;2023-02-01T03:19:23;7.80;99.90
26408;DHT22;14583;43.604;1.364;2023-02-01T03:22:08;7.80;99.90
26408;DHT22;14583;43.604;1.364;2023-02-01T03:24:42;7.80;99.90
26408;DHT22;14583;43.604;1.364;2023-02-01T03:30:21;7.90;99.90
26408;DHT22;14583;43.604;1.364;2023-02-01T03:32:50;7.90;99.90
26408;DHT22;14583;43.604;1.364;2023-02-01T03:40:42;7.90;99.90
26408;DHT22;14583;43.604;1.364;2023-02-01T03:43:11;7.80;99.90
26408;DHT22;14583;43.604;1.364;2023-02-01T03:45:44;7.90;99.90
26408;DHT22;14583;43.604;1.364;2023-02-01T03:48:13;7.90;99.90
26408;DHT22;14583;43.604;1.364;2023-02-01T03:50:46;7.90;99.90
26408;DHT22;14583;43.604;1.364;2023-02-01T03:53:17;8.00;99.90
26408;DHT22;14583;43.604;1.364;2023-02-01T03:55:44;8.00;99.90
26408;DHT22;14583;43.604;1.364;2023-02-01T03:58:19;7.90;99.90
26408;DHT22;14583;43.604;1.364;2023-02-01T04:00:54;8.00;99.90
26408;DHT22;14583;43.604;1.364;2023-02-01T04:03:20;8.00;99.90
26408;DHT22;14583;43.604;1.364;2023-02-01T04:05:48;8.00;99.90
26408;DHT22;14583;43.604;1.364;2023-02-01T04:08:13;8.00;99.90
26408;DHT22;14583;43.604;1.364;2023-02-01T04:10:39;8.00;99.90
26408;DHT22;14583;43.604;1.364;2023-02-01T04:13:05;8.00;99.90
26408;DHT22;14583;43.604;1.364;2023-02-01T04:15:31;8.00;99.90
26408;DHT22;14583;43.604;1.364;2023-02-01T04:17:56;8.00;99.90
26408;DHT22;14583;43.604;1.364;2023-02-01T04:20:22;8.10;99.90
26408;DHT22;14583;43.604;1.364;2023-02-01T04:22:48;8.10;99.90
26408;DHT22;14583;43.604;1.364;2023-02-01T04:25:13;8.10;99.90
26408;DHT22;14583;43.604;1.364;2023-02-01T04:27:39;8.00;99.90
26408;DHT22;14583;43.604;1.364;2023-02-01T04:30:05;8.00;99.90
26408;DHT22;14583;43.604;1.364;2023-02-01T04:32:38;8.10;99.90
26408;DHT22;14583;43.604;1.364;2023-02-01T04:35:04;8.10;99.90
26408;DHT22;14583;43.604;1.364;2023-02-01T04:37:30;8.00;99.90
26408;DHT22;14583;43.604;1.364;2023-02-01T04:39:56;8.10;99.90
26408;DHT22;14583;43.604;1.364;2023-02-01T04:42:21;8.00;99.90
26408;DHT22;14583;43.604;1.364;2023-02-01T04:44:47;8.00;99.90
26408;DHT22;14583;43.604;1.364;2023-02-01T04:47:13;8.00;99.90
26408;DHT22;14583;43.604;1.364;2023-02-01T04:49:39;8.00;99.90
26408;DHT22;14583;43.604;1.364;2023-02-01T04:52:05;7.90;99.90
26408;DHT22;14583;43.604;1.364;2023-02-01T04:54:31;7.90;99.90
26408;DHT22;14583;43.604;1.364;2023-02-01T04:56:57;7.90;99.90
26408;DHT22;14583;43.604;1.364;2023-02-01T04:59:22;7.90;99.90
26408;DHT22;14583;43.604;1.364;2023-02-01T05:01:48;7.90;99.90
26408;DHT22;14583;43.604;1.364;2023-02-01T05:04:13;7.90;99.90
26408;DHT22;14583;43.604;1.364;2023-02-01T05:06:39;7.90;99.90
26408;DHT22;14583;43.604;1.364;2023-02-01T05:09:05;7.90;99.90
26408;DHT22;14583;43.604;1.364;2023-02-01T05:11:31;7.80;99.90
26408;DHT22;14583;43.604;1.364;2023-02-01T05:14:15;7.80;99.90
26408;DHT22;14583;43.604;1.364;2023-02-01T05:16:41;7.80;99.90
26408;DHT22;14583;43.604;1.364;2023-02-01T05:19:06;7.80;99.90
26408;DHT22;14583;43.604;1.364;2023-02-01T05:21:32;7.80;99.90
26408;DHT22;14583;43.604;1.364;2023-02-01T05:23:58;7.80;99.90
26408;DHT22;14583;43.604;1.364;2023-02-01T05:26:45;7.80;99.90
26408;DHT22;14583;43.604;1.364;2023-02-01T05:29:11;7.90;99.90
26408;DHT22;14583;43.604;1.364;2023-02-01T05:31:39;7.80;99.90
26408;DHT22;14583;43.604;1.364;2023-02-01T05:34:08;7.80;99.90
26408;DHT22;14583;43.604;1.364;2023-02-01T05:36:34;7.90;99.90
26408;DHT22;14583;43.604;1.364;2023-02-01T05:38:59;7.90;99.90
26408;DHT22;14583;43.604;1.364;2023-02-01T05:41:25;8.00;99.90
26408;DHT22;14583;43.604;1.364;2023-02-01T05:43:51;7.90;99.90
26408;DHT22;14583;43.604;1.364;2023-02-01T05:46:17;7.90;99.90
26408;DHT22;14583;43.604;1.364;2023-02-01T05:48:43;7.80;99.90
26408;DHT22;14583;43.604;1.364;2023-02-01T05:51:10;7.70;99.90
26408;DHT22;14583;43.604;1.364;2023-02-01T05:53:35;7.70;99.90
26408;DHT22;14583;43.604;1.364;2023-02-01T05:56:01;7.70;99.90
26408;DHT22;14583;43.604;1.364;2023-02-01T05:58:27;7.70;99.90
26408;DHT22;14583;43.604;1.364;2023-02-01T06:00:53;7.60;99.90
26408;DHT22;14583;43.604;1.364;2023-02-01T06:03:19;7.50;99.90
26408;DHT22;14583;43.604;1.364;2023-02-01T06:05:45;7.50;99.90
26408;DHT22;14583;43.604;1.364;2023-02-01T06:08:11;7.60;99.90
26408;DHT22;14583;43.604;1.364;2023-02-01T06:10:37;7.70;99.90
26408;DHT22;14583;43.604;1.364;2023-02-01T06:13:03;7.70;99.90
26408;DHT22;14583;43.604;1.364;2023-02-01T06:15:29;7.70;99.90
26408;DHT22;14583;43.604;1.364;2023-02-01T06:17:55;7.70;99.90
26408;DHT22;14583;43.604;1.364;2023-02-01T06:20:21;7.70;99.90
26408;DHT22;14583;43.604;1.364;2023-02-01T06:22:47;7.80;99.90
26408;DHT22;14583;43.604;1.364;2023-02-01T06:25:13;7.90;99.90
26408;DHT22;14583;43.604;1.364;2023-02-01T06:27:38;7.80;99.90
26408;DHT22;14583;43.604;1.364;2023-02-01T06:30:05;7.90;99.90
26408;DHT22;14583;43.604;1.364;2023-02-01T06:32:32;7.90;99.90
26408;DHT22;14583;43.604;1.364;2023-02-01T06:34:58;7.90;99.90
26408;DHT22;14583;43.604;1.364;2023-02-01T06:37:25;7.90;99.90
26408;DHT22;14583;43.604;1.364;2023-02-01T06:39:51;7.90;99.90
26408;DHT22;14583;43.604;1.364;2023-02-01T06:42:17;7.90;99.90
26408;DHT22;14583;43.604;1.364;2023-02-01T06:44:42;7.90;99.90
26408;DHT22;14583;43.604;1.364;2023-02-01T06:47:08;7.90;99.90
26408;DHT22;14583;43.604;1.364;2023-02-01T06:49:34;7.90;99.90
26408;DHT22;14583;43.604;1.364;2023-02-01T06:52:00;7.90;99.90
26408;DHT22;14583;43.604;1.364;2023-02-01T06:54:26;7.90;99.90
26408;DHT22;14583;43.604;1.364;2023-02-01T06:56:52;7.90;99.90
26408;DHT22;14583;43.604;1.364;2023-02-01T06:59:18;7.90;99.90
26408;DHT22;14583;43.604;1.364;2023-02-01T07:01:44;7.90;99.90
26408;DHT22;14583;43.604;1.364;2023-02-01T07:04:11;7.90;99.90
26408;DHT22;14583;43.604;1.364;2023-02-01T07:06:37;7.90;99.90
26408;DHT22;14583;43.604;1.364;2023-02-01T07:09:03;7.90;99.90
26408;DHT22;14583;43.604;1.364;2023-02-01T07:11:29;7.80;99.90
26408;DHT22;14583;43.604;1.364;2023-02-01T07:13:55;7.80;99.90
26408;DHT22;14583;43.604;1.364;2023-02-01T07:16:21;7.90;99.90
26408;DHT22;14583;43.604;1.364;2023-02-01T07:18:49;7.90;99.90
26408;DHT22;14583;43.604;1.364;2023-02-01T07:21:15;8.00;99.90
26408;DHT22;14583;43.604;1.364;2023-02-01T07:23:40;8.00;99.90
26408;DHT22;14583;43.604;1.364;2023-02-01T07:26:09;7.90;99.90
26408;DHT22;14583;43.604;1.364;2023-02-01T07:28:38;8.00;99.90
26408;DHT22;14583;43.604;1.364;2023-02-01T07:31:13;7.90;99.90
26408;DHT22;14583;43.604;1.364;2023-02-01T07:33:40;7.90;99.90
26408;DHT22;14583;43.604;1.364;2023-02-01T07:36:10;7.90;99.90
26408;DHT22;14583;43.604;1.364;2023-02-01T07:38:36;7.90;99.90
26408;DHT22;14583;43.604;1.364;2023-02-01T07:41:05;7.80;99.90
26408;DHT22;14583;43.604;1.364;2023-02-01T07:43:31;7.80;99.90
26408;DHT22;14583;43.604;1.364;2023-02-01T07:45:58;7.90;99.90
26408;DHT22;14583;43.604;1.364;2023-02-01T07:48:25;7.90;99.90
26408;DHT22;14583;43.604;1.364;2023-02-01T07:50:59;8.00;99.90
26408;DHT22;14583;43.604;1.364;2023-02-01T07:53:25;8.00;99.90
26408;DHT22;14583;43.604;1.364;2023-02-01T07:55:51;8.00;99.90
26408;DHT22;14583;43.604;1.364;2023-02-01T07:58:16;8.00;99.90
26408;DHT22;14583;43.604;1.364;2023-02-01T08:00:42;8.10;99.90
26408;DHT22;14583;43.604;1.364;2023-02-01T08:03:27;8.10;99.90
26408;DHT22;14583;43.604;1.364;2023-02-01T08:05:55;8.10;99.90
26408;DHT22;14583;43.604;1.364;2023-02-01T08:08:22;8.10;99.90
26408;DHT22;14583;43.604;1.364;2023-02-01T08:10:47;8.10;99.90
26408;DHT22;14583;43.604;1.364;2023-02-01T08:13:13;8.10;99.90
26408;DHT22;14583;43.604;1.364;2023-02-01T08:15:39;8.20;99.90
26408;DHT22;14583;43.604;1.364;2023-02-01T08:18:05;8.20;99.90
26408;DHT22;14583;43.604;1.364;2023-02-01T08:20:30;8.20;99.90
26408;DHT22;14583;43.604;1.364;2023-02-01T08:22:57;8.20;99.90
26408;DHT22;14583;43.604;1.364;2023-02-01T08:25:23;8.30;99.90
26408;DHT22;14583;43.604;1.364;2023-02-01T08:27:50;8.40;99.90
26408;DHT22;14583;43.604;1.364;2023-02-01T08:30:16;8.30;99.90
26408;DHT22;14583;43.604;1.364;2023-02-01T08:32:42;8.30;99.90
26408;DHT22;14583;43.604;1.364;2023-02-01T08:35:08;8.40;99.90
26408;DHT22;14583;43.604;1.364;2023-02-01T08:37:34;8.40;99.90
26408;DHT22;14583;43.604;1.364;2023-02-01T08:40:00;8.20;99.90
26408;DHT22;14583;43.604;1.364;2023-02-01T08:42:26;8.20;99.90
26408;DHT22;14583;43.604;1.364;2023-02-01T08:45:10;8.30;99.90
26408;DHT22;14583;43.604;1.364;2023-02-01T08:47:36;8.30;99.90
26408;DHT22;14583;43.604;1.364;2023-02-01T08:50:02;8.30;99.90
26408;DHT22;14583;43.604;1.364;2023-02-01T08:52:28;8.30;99.90
26408;DHT22;14583;43.604;1.364;2023-02-01T08:54:54;8.20;99.90
26408;DHT22;14583;43.604;1.364;2023-02-01T08:57:19;8.20;99.90
26408;DHT22;14583;43.604;1.364;2023-02-01T08:59:45;8.10;99.90
26408;DHT22;14583;43.604;1.364;2023-02-01T09:02:15;8.20;99.90
26408;DHT22;14583;43.604;1.364;2023-02-01T09:04:41;8.20;99.90
26408;DHT22;14583;43.604;1.364;2023-02-01T09:07:08;8.20;99.90
26408;DHT22;14583;43.604;1.364;2023-02-01T09:09:34;8.20;99.90
26408;DHT22;14583;43.604;1.364;2023-02-01T09:12:00;8.20;99.90
26408;DHT22;14583;43.604;1.364;2023-02-01T09:14:25;8.30;99.90
26408;DHT22;14583;43.604;1.364;2023-02-01T09:16:51;8.30;99.90
26408;DHT22;14583;43.604;1.364;2023-02-01T09:19:17;8.30;99.90
26408;DHT22;14583;43.604;1.364;2023-02-01T09:21:42;8.30;99.90
26408;DHT22;14583;43.604;1.364;2023-02-01T09:24:10;8.20;99.90
26408;DHT22;14583;43.604;1.364;2023-02-01T09:26:36;8.30;99.90
26408;DHT22;14583;43.604;1.364;2023-02-01T09:29:03;8.30;99.90
26408;DHT22;14583;43.604;1.364;2023-02-01T09:31:29;8.50;99.90
26408;DHT22;14583;43.604;1.364;2023-02-01T09:33:56;8.50;99.90
26408;DHT22;14583;43.604;1.364;2023-02-01T09:36:22;8.50;99.90
26408;DHT22;14583;43.604;1.364;2023-02-01T09:38:49;8.60;99.90
26408;DHT22;14583;43.604;1.364;2023-02-01T09:41:38;8.50;99.90
26408;DHT22;14583;43.604;1.364;2023-02-01T09:46:48;8.50;99.90
26408;DHT22;14583;43.604;1.364;2023-02-01T09:49:18;8.40;99.90
26408;DHT22;14583;43.604;1.364;2023-02-01T09:51:48;8.30;99.90
26408;DHT22;14583;43.604;1.364;2023-02-01T09:54:21;8.40;99.90
26408;DHT22;14583;43.604;1.364;2023-02-01T09:56:52;8.30;99.90
26408;DHT22;14583;43.604;1.364;2023-02-01T09:59:55;8.10;99.90
26408;DHT22;14583;43.604;1.364;2023-02-01T10:02:25;8.20;99.90
26408;DHT22;14583;43.604;1.364;2023-02-01T10:04:55;8.30;99.90
26408;DHT22;14583;43.604;1.364;2023-02-01T10:08:01;8.40;99.90
26408;DHT22;14583;43.604;1.364;2023-02-01T10:18:57;8.60;99.90
26408;DHT22;14583;43.604;1.364;2023-02-01T10:24:32;8.50;99.90
26408;DHT22;14583;43.604;1.364;2023-02-01T10:27:19;8.50;99.90
26408;DHT22;14583;43.604;1.364;2023-02-01T10:29:53;8.50;99.90
26408;DHT22;14583;43.604;1.364;2023-02-01T10:32:27;8.30;99.90
26408;DHT22;14583;43.604;1.364;2023-02-01T10:34:59;8.40;99.90
26408;DHT22;14583;43.604;1.364;2023-02-01T10:37:30;8.50;99.90
26408;DHT22;14583;43.604;1.364;2023-02-01T10:39:59;8.60;99.90
26408;DHT22;14583;43.604;1.364;2023-02-01T10:42:27;8.70;99.90
26408;DHT22;14583;43.604;1.364;2023-02-01T10:44:56;8.70;99.90
26408;DHT22;14583;43.604;1.364;2023-02-01T10:47:23;8.90;99.90
26408;DHT22;14583;43.604;1.364;2023-02-01T10:54:49;8.90;99.90
26408;DHT22;14583;43.604;1.364;2023-02-01T10:57:23;8.90;99.90
26408;DHT22;14583;43.604;1.364;2023-02-01T10:59:51;8.80;99.90
26408;DHT22;14583;43.604;1.364;2023-02-01T11:02:29;8.80;99.90
26408;DHT22;14583;43.604;1.364;2023-02-01T11:05:05;8.90;99.90
26408;DHT22;14583;43.604;1.364;2023-02-01T11:07:32;9.10;99.90
26408;DHT22;14583;43.604;1.364;2023-02-01T11:09:58;9.30;99.90
26408;DHT22;14583;43.604;1.364;2023-02-01T11:12:35;9.40;99.90
26408;DHT22;14583;43.604;1.364;2023-02-01T11:15:15;9.40;99.90
26408;DHT22;14583;43.604;1.364;2023-02-01T11:17:45;9.40;99.90
26408;DHT22;14583;43.604;1.364;2023-02-01T11:20:20;9.40;99.90
26408;DHT22;14583;43.604;1.364;2023-02-01T11:22:48;9.50;99.90
26408;DHT22;14583;43.604;1.364;2023-02-01T11:25:15;9.60;99.90
26408;DHT22;14583;43.604;1.364;2023-02-01T11:27:41;9.50;99.90
26408;DHT22;14583;43.604;1.364;2023-02-01T11:30:13;9.40;99.90
26408;DHT22;14583;43.604;1.364;2023-02-01T11:32:40;9.40;99.90
26408;DHT22;14583;43.604;1.364;2023-02-01T11:35:06;9.40;99.90
26408;DHT22;14583;43.604;1.364;2023-02-01T11:37:38;9.40;99.90
26408;DHT22;14583;43.604;1.364;2023-02-01T11:40:27;9.40;99.90
26408;DHT22;14583;43.604;1.364;2023-02-01T11:42:58;9.50;99.90
26408;DHT22;14583;43.604;1.364;2023-02-01T11:45:31;9.60;99.90
26408;DHT22;14583;43.604;1.364;2023-02-01T11:47:59;9.70;99.90
26408;DHT22;14583;43.604;1.364;2023-02-01T11:50:37;9.70;99.90
26408;DHT22;14583;43.604;1.364;2023-02-01T11:55:45;9.80;99.90
26408;DHT22;14583;43.604;1.364;2023-02-01T12:09:16;10.20;99.90
26408;DHT22;14583;43.604;1.364;2023-02-01T12:39:23;10.70;99.90
26408;DHT22;14583;43.604;1.364;2023-02-01T12:42:00;10.70;99.90
26408;DHT22;14583;43.604;1.364;2023-02-01T12:49:50;10.80;99.90
26408;DHT22;14583;43.604;1.364;2023-02-01T12:52:27;10.80;99.90
26408;DHT22;14583;43.604;1.364;2023-02-01T12:57:35;10.60;99.90
26408;DHT22;14583;43.604;1.364;2023-02-01T13:00:18;10.50;99.90
26408;DHT22;14583;43.604;1.364;2023-02-01T13:03:25;10.50;99.90
26408;DHT22;14583;43.604;1.364;2023-02-01T13:06:20;10.50;99.90
26408;DHT22;14583;43.604;1.364;2023-02-01T13:11:43;10.50;99.90
26408;DHT22;14583;43.604;1.364;2023-02-01T13:14:32;10.50;99.90
26408;DHT22;14583;43.604;1.364;2023-02-01T13:17:05;10.30;99.90
26408;DHT22;14583;43.604;1.364;2023-02-01T13:22:19;10.20;99.90
26408;DHT22;14583;43.604;1.364;2023-02-01T13:25:13;10.20;99.90
26408;DHT22;14583;43.604;1.364;2023-02-01T13:27:38;10.10;99.90
26408;DHT22;14583;43.604;1.364;2023-02-01T13:41:24;9.70;99.90
26408;DHT22;14583;43.604;1.364;2023-02-01T13:43:51;9.60;99.90
26408;DHT22;14583;43.604;1.364;2023-02-01T13:46:18;9.60;99.90
26408;DHT22;14583;43.604;1.364;2023-02-01T13:51:13;9.50;99.90
26408;DHT22;14583;43.604;1.364;2023-02-01T13:53:45;9.50;99.90
26408;DHT22;14583;43.604;1.364;2023-02-01T13:56:15;9.50;99.90
26408;DHT22;14583;43.604;1.364;2023-02-01T13:58:43;9.40;99.90
26408;DHT22;14583;43.604;1.364;2023-02-01T14:03:59;9.30;99.90
26408;DHT22;14583;43.604;1.364;2023-02-01T14:11:42;9.30;99.90
26408;DHT22;14583;43.604;1.364;2023-02-01T14:19:29;9.30;99.90
26408;DHT22;14583;43.604;1.364;2023-02-01T14:24:51;9.30;99.90
26408;DHT22;14583;43.604;1.364;2023-02-01T14:27:28;9.40;99.90
26408;DHT22;14583;43.604;1.364;2023-02-01T14:29:59;9.40;99.90
26408;DHT22;14583;43.604;1.364;2023-02-01T14:32:40;9.40;99.90
26408;DHT22;14583;43.604;1.364;2023-02-01T14:35:18;9.50;99.90
26408;DHT22;14583;43.604;1.364;2023-02-01T14:37:45;9.50;99.90
26408;DHT22;14583;43.604;1.364;2023-02-01T15:06:30;9.90;99.90
26408;DHT22;14583;43.604;1.364;2023-02-01T15:09:01;9.80;99.90
26408;DHT22;14583;43.604;1.364;2023-02-01T15:11:27;9.70;99.90
26408;DHT22;14583;43.604;1.364;2023-02-01T15:13:53;9.70;99.90
26408;DHT22;14583;43.604;1.364;2023-02-01T15:16:24;9.60;99.90
26408;DHT22;14583;43.604;1.364;2023-02-01T15:18:50;9.60;99.90
26408;DHT22;14583;43.604;1.364;2023-02-01T15:21:19;9.50;99.90
26408;DHT22;14583;43.604;1.364;2023-02-01T15:23:45;9.50;99.90
26408;DHT22;14583;43.604;1.364;2023-02-01T15:26:34;9.50;99.90
26408;DHT22;14583;43.604;1.364;2023-02-01T15:28:59;9.50;99.90
26408;DHT22;14583;43.604;1.364;2023-02-01T15:31:34;9.40;99.90
26408;DHT22;14583;43.604;1.364;2023-02-01T15:34:01;9.40;99.90
26408;DHT22;14583;43.604;1.364;2023-02-01T15:36:26;9.30;99.90
26408;DHT22;14583;43.604;1.364;2023-02-01T15:41:38;9.30;99.90
26408;DHT22;14583;43.604;1.364;2023-02-01T15:44:15;9.30;99.90
26408;DHT22;14583;43.604;1.364;2023-02-01T15:46:46;9.30;99.90
26408;DHT22;14583;43.604;1.364;2023-02-01T15:49:35;9.30;99.90
26408;DHT22;14583;43.604;1.364;2023-02-01T15:52:03;9.30;99.90
26408;DHT22;14583;43.604;1.364;2023-02-01T15:54:52;9.30;99.90
26408;DHT22;14583;43.604;1.364;2023-02-01T15:57:27;9.30;99.90
26408;DHT22;14583;43.604;1.364;2023-02-01T15:59:58;9.20;99.90
26408;DHT22;14583;43.604;1.364;2023-02-01T16:02:42;9.20;99.90
26408;DHT22;14583;43.604;1.364;2023-02-01T16:05:40;9.10;99.90
26408;DHT22;14583;43.604;1.364;2023-02-01T16:08:16;9.10;99.90
26408;DHT22;14583;43.604;1.364;2023-02-01T16:10:46;9.00;99.90
26408;DHT22;14583;43.604;1.364;2023-02-01T16:13:13;9.10;99.90
26408;DHT22;14583;43.604;1.364;2023-02-01T16:15:39;9.00;99.90
26408;DHT22;14583;43.604;1.364;2023-02-01T16:18:06;9.00;99.90
26408;DHT22;14583;43.604;1.364;2023-02-01T16:20:34;9.00;99.90
26408;DHT22;14583;43.604;1.364;2023-02-01T16:23:03;9.00;99.90
26408;DHT22;14583;43.604;1.364;2023-02-01T16:25:29;9.00;99.90
26408;DHT22;14583;43.604;1.364;2023-02-01T16:27:55;9.00;99.90
26408;DHT22;14583;43.604;1.364;2023-02-01T16:30:21;8.90;99.90
26408;DHT22;14583;43.604;1.364;2023-02-01T16:32:59;8.90;99.90
26408;DHT22;14583;43.604;1.364;2023-02-01T16:37:50;8.90;99.90
26408;DHT22;14583;43.604;1.364;2023-02-01T16:40:18;8.90;99.90
26408;DHT22;14583;43.604;1.364;2023-02-01T16:42:46;8.90;99.90
26408;DHT22;14583;43.604;1.364;2023-02-01T16:45:13;8.90;99.90
26408;DHT22;14583;43.604;1.364;2023-02-01T16:47:48;8.90;99.90
26408;DHT22;14583;43.604;1.364;2023-02-01T16:50:22;8.80;99.90
26408;DHT22;14583;43.604;1.364;2023-02-01T16:52:48;8.90;99.90
26408;DHT22;14583;43.604;1.364;2023-02-01T16:55:15;9.00;99.90
26408;DHT22;14583;43.604;1.364;2023-02-01T16:57:42;9.00;99.90
26408;DHT22;14583;43.604;1.364;2023-02-01T17:00:09;8.90;99.90
26408;DHT22;14583;43.604;1.364;2023-02-01T17:02:35;8.90;99.90
26408;DHT22;14583;43.604;1.364;2023-02-01T17:05:00;8.90;99.90
26408;DHT22;14583;43.604;1.364;2023-02-01T17:07:26;8.80;99.90
26408;DHT22;14583;43.604;1.364;2023-02-01T17:09:52;8.80;99.90
26408;DHT22;14583;43.604;1.364;2023-02-01T17:12:29;8.70;99.90
26408;DHT22;14583;43.604;1.364;2023-02-01T17:14:55;8.70;99.90
26408;DHT22;14583;43.604;1.364;2023-02-01T17:17:22;8.60;99.90
26408;DHT22;14583;43.604;1.364;2023-02-01T17:19:51;8.40;99.90
26408;DHT22;14583;43.604;1.364;2023-02-01T17:22:19;8.30;99.90
26408;DHT22;14583;43.604;1.364;2023-02-01T17:24:45;8.30;99.90
26408;DHT22;14583;43.604;1.364;2023-02-01T17:27:11;8.30;99.90
26408;DHT22;14583;43.604;1.364;2023-02-01T17:29:37;8.20;99.90
26408;DHT22;14583;43.604;1.364;2023-02-01T17:32:03;8.10;99.90
26408;DHT22;14583;43.604;1.364;2023-02-01T17:34:30;8.10;99.90
26408;DHT22;14583;43.604;1.364;2023-02-01T17:36:55;8.10;99.90
26408;DHT22;14583;43.604;1.364;2023-02-01T17:39:21;8.10;99.90
26408;DHT22;14583;43.604;1.364;2023-02-01T17:42:10;8.00;99.90
26408;DHT22;14583;43.604;1.364;2023-02-01T17:44:36;7.90;99.90
26408;DHT22;14583;43.604;1.364;2023-02-01T17:47:02;8.00;99.90
26408;DHT22;14583;43.604;1.364;2023-02-01T17:49:27;7.90;99.90
26408;DHT22;14583;43.604;1.364;2023-02-01T17:51:54;7.90;99.90
26408;DHT22;14583;43.604;1.364;2023-02-01T17:54:20;7.90;99.90
26408;DHT22;14583;43.604;1.364;2023-02-01T17:56:46;8.00;99.90
26408;DHT22;14583;43.604;1.364;2023-02-01T17:59:15;7.90;99.90
26408;DHT22;14583;43.604;1.364;2023-02-01T18:01:41;7.80;99.90
26408;DHT22;14583;43.604;1.364;2023-02-01T18:04:15;7.80;99.90
26408;DHT22;14583;43.604;1.364;2023-02-01T18:06:43;7.70;99.90
26408;DHT22;14583;43.604;1.364;2023-02-01T18:09:09;7.70;99.90
26408;DHT22;14583;43.604;1.364;2023-02-01T18:11:35;7.70;99.90
26408;DHT22;14583;43.604;1.364;2023-02-01T18:14:01;7.60;99.90
26408;DHT22;14583;43.604;1.364;2023-02-01T18:16:31;7.60;99.90
26408;DHT22;14583;43.604;1.364;2023-02-01T18:18:57;7.60;99.90
26408;DHT22;14583;43.604;1.364;2023-02-01T18:21:31;7.60;99.90
26408;DHT22;14583;43.604;1.364;2023-02-01T18:23:57;7.60;99.90
26408;DHT22;14583;43.604;1.364;2023-02-01T18:26:23;7.60;99.90
26408;DHT22;14583;43.604;1.364;2023-02-01T18:28:48;7.60;99.90
26408;DHT22;14583;43.604;1.364;2023-02-01T18:31:27;7.60;99.90
26408;DHT22;14583;43.604;1.364;2023-02-01T18:33:55;7.50;99.90
26408;DHT22;14583;43.604;1.364;2023-02-01T18:36:22;7.40;99.90
26408;DHT22;14583;43.604;1.364;2023-02-01T18:38:48;7.50;99.90
26408;DHT22;14583;43.604;1.364;2023-02-01T18:41:18;7.50;99.90
26408;DHT22;14583;43.604;1.364;2023-02-01T18:43:49;7.50;99.90